Kerr, Ohio
Current Conditions -  °F | °C
As of 12:15 PM on Thursday 27 Nov 2014 (Local Time) from K3I2 Reporting Station
Overcast Overcast  
Wind Chill: -1°   Ceiling: 1600
Heat Index:   Visibility: 7mi
Dew Point: -1°   Wind: 7mph
Humidity: 81%   Direction: 290°WNW
Pressure: 30.22"   Gusts: NA
Location:  38.87°N, 82.26°W
Report Text: K3I2 271715Z AUTO 29006KT 7SM OVC016 02/M01 A3022 RMK AO2
Loading
Personal Weather Stations






























Interactive Weather Map New forecast layout! Learn more

10-Day Weather Forecast

Advertisements
Track Severe Weather on mobile